Time;durP1;ratioP1;P1;durP2;ratioP2;P2;SDS_P1;SDS_P2;PMS_P1;PMS_P2;Temp;Humidity;BMP_temperature;BMP_pressure;BME280_temperature;BME280_humidity;BME280_pressure;Samples;Min_cycle;Max_cycle;Signal;HPM_P1;HPM_P2
2021/10/23 00:00:17;;;;;;;48.15;33.20;;;409.80;2176.00;;;;;;5096530;28;20474;-83
2021/10/23 00:02:42;;;;;;;54.17;35.00;;;409.80;2176.00;;;;;;5095801;28;20112;-79
2021/10/23 00:05:09;;;;;;;51.42;34.03;;;409.80;2176.00;;;;;;5077790;28;20474;-77
2021/10/23 00:07:35;;;;;;;54.42;34.80;;;409.80;2176.00;;;;;;5095993;28;20020;-78
2021/10/23 00:10:00;;;;;;;54.20;32.58;;;409.80;2176.00;;;;;;5095988;28;20016;-79
2021/10/23 00:12:26;;;;;;;50.42;33.53;;;409.80;2201.60;;;;;;5095941;28;20032;-79
2021/10/23 00:14:52;;;;;;;53.33;34.40;;;409.80;2176.00;;;;;;5095939;28;20028;-77
2021/10/23 00:17:18;;;;;;;53.30;33.65;;;409.80;2176.00;;;;;;5095416;28;20020;-78
2021/10/23 00:19:44;;;;;;;53.08;34.42;;;409.80;2176.00;;;;;;5095279;28;20061;-79
2021/10/23 00:22:10;;;;;;;51.22;32.90;;;409.80;2176.00;;;;;;5095789;28;20378;-79
2021/10/23 00:24:36;;;;;;;53.05;33.90;;;409.80;2176.00;;;;;;5095485;28;20462;-79
2021/10/23 00:27:02;;;;;;;52.85;34.17;;;409.80;2176.00;;;;;;5095527;28;20017;-79
2021/10/23 00:29:28;;;;;;;51.20;32.95;;;409.80;2176.00;;;;;;5076797;28;20385;-78
2021/10/23 00:31:54;;;;;;;55.97;35.55;;;409.80;2176.00;;;;;;5077684;28;20032;-86
2021/10/23 00:34:20;;;;;;;59.42;36.03;;;409.80;2176.00;;;;;;5095898;28;20031;-86
2021/10/23 00:36:47;;;;;;;60.47;38.08;;;409.80;2201.60;;;;;;5077816;28;20474;-79
2021/10/23 00:39:12;;;;;;;61.35;36.47;;;409.80;2176.00;;;;;;5094980;28;20165;-82
2021/10/23 00:41:39;;;;;;;57.45;35.95;;;409.80;2176.00;;;;;;5077311;28;20087;-82
2021/10/23 00:44:05;;;;;;;52.40;34.92;;;409.80;2201.60;;;;;;5095783;28;20016;-84
2021/10/23 00:46:31;;;;;;;53.13;35.17;;;409.80;2201.60;;;;;;5095233;28;20161;-84
2021/10/23 00:48:57;;;;;;;57.00;35.88;;;409.80;2201.60;;;;;;5091885;28;20098;-84
2021/10/23 00:51:23;;;;;;;50.83;35.53;;;409.80;2201.60;;;;;;5095442;28;20036;-84
2021/10/23 00:53:49;;;;;;;53.22;34.67;;;409.90;2201.60;;;;;;5095752;28;20028;-84
2021/10/23 00:56:17;;;;;;;53.28;34.50;;;409.90;2201.60;;;;;;5095285;28;20057;-84
2021/10/23 00:58:45;;;;;;;54.53;34.70;;;409.90;2201.60;;;;;;5095772;28;20025;-84
2021/10/23 01:01:11;;;;;;;53.65;34.33;;;409.90;2201.60;;;;;;5095453;28;20038;-84
2021/10/23 01:03:39;;;;;;;50.20;34.35;;;409.90;2201.60;;;;;;5076745;28;20122;-83
2021/10/23 01:06:07;;;;;;;46.65;33.08;;;409.90;2201.60;;;;;;5095211;28;20485;-83
2021/10/23 01:08:33;;;;;;;43.63;32.25;;;409.90;2201.60;;;;;;5095246;28;20534;-84
2021/10/23 01:10:59;;;;;;;46.13;32.95;;;409.90;2201.60;;;;;;5095033;28;20062;-83
2021/10/23 01:13:25;;;;;;;42.58;31.75;;;409.90;2201.60;;;;;;5095429;28;20028;-83
2021/10/23 01:15:50;;;;;;;38.33;31.23;;;409.90;2201.60;;;;;;5095091;28;20050;-79
2021/10/23 01:18:16;;;;;;;46.28;31.55;;;409.90;2201.60;;;;;;5094714;28;20028;-81
2021/10/23 01:20:42;;;;;;;42.35;30.92;;;409.90;2201.60;;;;;;5094583;28;20373;-78
2021/10/23 01:23:07;;;;;;;38.53;28.98;;;409.90;2201.60;;;;;;5094488;28;20042;-78
2021/10/23 01:25:34;;;;;;;36.03;27.30;;;409.90;2201.60;;;;;;5110151;28;20381;-78
2021/10/23 01:28:02;;;;;;;36.95;27.63;;;409.90;2201.60;;;;;;5094411;28;20020;-79
2021/10/23 01:30:28;;;;;;;34.95;25.23;;;409.90;2201.60;;;;;;5094324;28;20028;-81
2021/10/23 01:33:12;;;;;;;32.42;26.25;;;409.80;2176.00;;;;;;5095391;28;20024;-81
2021/10/23 01:35:39;;;;;;;29.63;24.08;;;409.80;2176.00;;;;;;5094412;28;20077;-81
2021/10/23 01:38:05;;;;;;;27.42;21.90;;;409.80;2176.00;;;;;;5095728;28;20103;-80
2021/10/23 01:40:33;;;;;;;26.58;20.55;;;409.80;2176.00;;;;;;5094223;28;20118;-80
2021/10/23 01:42:59;;;;;;;22.75;17.92;;;409.80;2176.00;;;;;;5093853;28;20027;-79
2021/10/23 01:45:25;;;;;;;22.23;18.27;;;409.70;2176.00;;;;;;5094262;28;20427;-79
2021/10/23 01:47:50;;;;;;;19.13;15.50;;;409.70;2150.40;;;;;;5093590;28;20020;-78
2021/10/23 01:50:21;;;;;;;15.23;10.55;;;409.70;2150.40;;;;;;5074967;28;20486;-78
2021/10/23 01:52:48;;;;;;;11.20;7.80;;;409.60;2073.60;;;;;;5094030;28;20019;-77
2021/10/23 01:55:15;;;;;;;10.88;7.22;;;409.60;2022.40;;;;;;5094077;28;20030;-78
2021/10/23 01:57:42;;;;;;;8.63;6.75;;;384.90;1996.80;;;;;;5093457;28;20048;-78
2021/10/23 02:00:11;;;;;;;12.10;6.50;;;384.80;1945.60;;;;;;5075061;28;20066;-77
2021/10/23 02:02:36;;;;;;;8.38;6.03;;;384.70;1971.20;;;;;;5075446;28;20088;-76
2021/10/23 02:05:03;;;;;;;9.27;6.43;;;384.60;1971.20;;;;;;5093987;28;20213;-77
2021/10/23 02:07:29;;;;;;;12.82;6.80;;;384.60;1971.20;;;;;;5094119;28;20013;-77
2021/10/23 02:09:55;;;;;;;11.20;6.03;;;384.50;1996.80;;;;;;5093815;28;20099;-77
2021/10/23 02:12:20;;;;;;;8.80;4.20;;;384.40;1945.60;;;;;;5075774;28;20024;-77
2021/10/23 02:14:46;;;;;;;5.63;3.50;;;384.30;1920.00;;;;;;5093921;28;20537;-75
2021/10/23 02:17:12;;;;;;;5.88;3.10;;;384.20;1868.80;;;;;;5093689;28;20043;-77
2021/10/23 02:19:38;;;;;;;9.93;2.70;;;384.20;1843.20;;;;;;5075639;28;20420;-76
2021/10/23 02:22:04;;;;;;;8.77;2.80;;;384.10;1817.60;;;;;;5109543;28;20054;-76
2021/10/23 02:24:30;;;;;;;4.38;2.15;;;384.00;1843.20;;;;;;5093753;28;20518;-76
2021/10/23 02:26:56;;;;;;;5.32;2.15;;;384.00;1817.60;;;;;;5093769;28;20039;-76
2021/10/23 02:29:21;;;;;;;9.45;2.33;;;359.30;1792.00;;;;;;5093727;28;20462;-77
2021/10/23 02:31:47;;;;;;;6.50;2.50;;;359.20;1817.60;;;;;;5093545;28;20028;-77
2021/10/23 02:34:13;;;;;;;7.65;2.38;;;359.10;1817.60;;;;;;5075354;28;20028;-73
2021/10/23 02:36:39;;;;;;;7.28;2.33;;;359.10;1843.20;;;;;;5093542;28;20024;-76
2021/10/23 02:39:04;;;;;;;7.45;2.10;;;359.00;1817.60;;;;;;5093870;28;20470;-78
2021/10/23 02:41:30;;;;;;;6.78;2.50;;;358.90;1843.20;;;;;;5093454;28;20059;-79
2021/10/23 02:43:57;;;;;;;8.25;2.28;;;358.90;1843.20;;;;;;5109108;28;20109;-79
2021/10/23 02:46:23;;;;;;;6.45;2.28;;;358.90;1817.60;;;;;;5093726;28;20035;-79
2021/10/23 02:48:49;;;;;;;8.73;3.03;;;358.90;1817.60;;;;;;5093391;28;20040;-79
2021/10/23 02:51:14;;;;;;;4.53;2.03;;;358.70;1843.20;;;;;;5109324;28;20077;-79
2021/10/23 02:53:40;;;;;;;5.53;2.30;;;358.70;1843.20;;;;;;5093326;28;20032;-79
2021/10/23 02:56:06;;;;;;;6.45;2.70;;;358.70;1868.80;;;;;;5093494;28;20020;-79
2021/10/23 02:58:32;;;;;;;10.38;3.35;;;358.70;1868.80;;;;;;5093433;28;20055;-79
2021/10/23 03:00:58;;;;;;;6.32;3.38;;;358.60;1868.80;;;;;;5093201;28;20032;-78
2021/10/23 03:03:24;;;;;;;11.63;3.17;;;358.60;1868.80;;;;;;5093434;28;20020;-80
2021/10/23 03:05:49;;;;;;;10.35;3.20;;;358.70;1920.00;;;;;;5093896;28;20024;-81
2021/10/23 03:08:15;;;;;;;9.27;3.63;;;358.70;1945.60;;;;;;5088169;28;20102;-82
2021/10/23 03:10:42;;;;;;;13.13;3.50;;;358.70;1945.60;;;;;;5095806;28;20024;-79
2021/10/23 03:13:08;;;;;;;8.57;2.75;;;358.80;1945.60;;;;;;5096772;28;20343;-80
2021/10/23 03:15:34;;;;;;;9.85;2.72;;;358.90;1920.00;;;;;;5096669;28;20031;-81
2021/10/23 03:18:00;;;;;;;11.60;2.80;;;358.90;1920.00;;;;;;5096623;28;20028;-74
2021/10/23 03:20:26;;;;;;;6.13;2.15;;;358.90;1894.40;;;;;;5112168;28;20032;-78
2021/10/23 03:22:51;;;;;;;6.57;2.17;;;358.90;1843.20;;;;;;5096922;28;20020;-76
2021/10/23 03:25:17;;;;;;;7.05;1.90;;;358.90;1843.20;;;;;;5078280;28;20504;-76
2021/10/23 03:27:43;;;;;;;4.45;1.75;;;358.90;1792.00;;;;;;5096751;28;20123;-86
2021/10/23 03:30:09;;;;;;;14.95;2.20;;;358.90;1766.40;;;;;;5096805;28;20078;-86
2021/10/23 03:35:57;;;;;;;6.65;1.88;;;358.70;1715.20;;;;;;5095952;28;20027;-85
2021/10/23 03:38:22;;;;;;;4.85;1.92;;;358.70;1740.80;;;;;;5096555;28;20028;-85
2021/10/23 03:40:48;;;;;;;6.00;1.92;;;358.60;1766.40;;;;;;5078165;28;20047;-84
2021/10/23 03:43:14;;;;;;;6.15;2.53;;;358.60;1766.40;;;;;;5097143;28;20063;-84
2021/10/23 03:45:40;;;;;;;6.80;2.78;;;358.60;1766.40;;;;;;5096592;28;20024;-78
2021/10/23 03:48:05;;;;;;;8.35;2.40;;;358.50;1792.00;;;;;;5096300;28;20016;-78
2021/10/23 03:50:31;;;;;;;3.83;1.80;;;358.60;1766.40;;;;;;5077976;28;20097;-78
2021/10/23 03:52:58;;;;;;;8.90;2.60;;;358.60;1766.40;;;;;;5096318;28;20481;-79
2021/10/23 03:55:23;;;;;;;8.48;2.45;;;358.50;1792.00;;;;;;5095754;28;20106;-74
2021/10/23 03:57:49;;;;;;;7.05;1.98;;;358.50;1766.40;;;;;;5096252;28;20100;-76
2021/10/23 04:00:15;;;;;;;5.20;1.88;;;358.50;1766.40;;;;;;5096086;28;20424;-79
2021/10/23 04:02:41;;;;;;;8.25;2.03;;;358.50;1792.00;;;;;;5095503;28;20436;-77
2021/10/23 04:05:07;;;;;;;7.97;2.60;;;358.50;1792.00;;;;;;5096005;28;20028;-77
2021/10/23 04:07:33;;;;;;;10.10;3.63;;;358.50;1766.40;;;;;;5095976;28;20081;-77
2021/10/23 04:09:59;;;;;;;11.10;5.03;;;358.50;1766.40;;;;;;5077381;28;20100;-77
2021/10/23 04:12:25;;;;;;;12.80;4.63;;;358.40;1766.40;;;;;;5095892;28;20039;-76
2021/10/23 04:14:51;;;;;;;8.45;4.70;;;358.50;1766.40;;;;;;5095287;28;20020;-76
2021/10/23 04:17:16;;;;;;;12.82;4.05;;;358.50;1792.00;;;;;;5095842;28;20035;-76
2021/10/23 04:19:42;;;;;;;7.43;2.85;;;358.50;1792.00;;;;;;5095235;28;20077;-76
2021/10/23 04:22:09;;;;;;;7.53;2.38;;;358.40;1792.00;;;;;;5076324;28;20123;-76
2021/10/23 04:24:35;;;;;;;6.05;2.70;;;358.50;1766.40;;;;;;5095722;28;20025;-76
2021/10/23 04:27:01;;;;;;;8.00;2.90;;;358.40;1792.00;;;;;;5095346;28;20020;-76
2021/10/23 04:29:27;;;;;;;9.85;3.15;;;358.40;1766.40;;;;;;5077079;28;20093;-76
2021/10/23 04:31:53;;;;;;;9.07;2.92;;;358.40;1766.40;;;;;;5095309;28;20393;-76
2021/10/23 04:34:18;;;;;;;5.28;2.25;;;333.70;1766.40;;;;;;5095419;28;20066;-77
2021/10/23 04:36:44;;;;;;;7.30;2.08;;;333.70;1792.00;;;;;;5095485;28;20024;-77
2021/10/23 04:39:10;;;;;;;6.57;1.75;;;333.70;1766.40;;;;;;5095444;28;20027;-77
2021/10/23 04:41:38;;;;;;;9.35;2.30;;;333.70;1766.40;;;;;;5095240;28;20564;-77
2021/10/23 04:44:04;;;;;;;3.28;1.40;;;333.70;1766.40;;;;;;5095227;28;20032;-74
2021/10/23 04:46:29;;;;;;;4.40;1.80;;;333.70;1792.00;;;;;;5095280;28;20024;-74
2021/10/23 04:48:55;;;;;;;8.52;2.80;;;333.70;1792.00;;;;;;5094783;28;20059;-73
2021/10/23 04:51:21;;;;;;;5.95;2.28;;;333.70;1792.00;;;;;;5095005;28;20069;-75
2021/10/23 04:53:47;;;;;;;7.93;2.30;;;333.70;1792.00;;;;;;5094463;28;20389;-74
2021/10/23 04:56:12;;;;;;;7.88;2.38;;;333.70;1792.00;;;;;;5077003;28;20031;-74
2021/10/23 04:58:38;;;;;;;10.38;3.10;;;333.70;1792.00;;;;;;5094992;28;20020;-74
2021/10/23 05:01:04;;;;;;;5.43;2.55;;;333.70;1766.40;;;;;;5075715;28;20543;-74
2021/10/23 05:03:30;;;;;;;9.13;3.17;;;333.60;1740.80;;;;;;5076592;28;20013;-74
2021/10/23 05:05:57;;;;;;;11.45;3.60;;;333.60;1740.80;;;;;;5094765;28;20466;-72
2021/10/23 05:08:23;;;;;;;12.00;3.92;;;333.60;1740.80;;;;;;5094486;28;20026;-72
2021/10/23 05:10:49;;;;;;;14.82;5.88;;;333.60;1740.80;;;;;;5094304;28;20386;-72
2021/10/23 05:13:16;;;;;;;19.08;7.22;;;333.60;1740.80;;;;;;5094260;28;20027;-72
2021/10/23 05:15:42;;;;;;;22.05;8.05;;;333.60;1740.80;;;;;;5094715;28;20436;-73
2021/10/23 05:18:08;;;;;;;25.23;7.88;;;333.60;1740.80;;;;;;5094468;28;20020;-72
2021/10/23 05:20:34;;;;;;;15.50;6.28;;;333.50;1740.80;;;;;;5094561;28;20036;-72
2021/10/23 05:23:00;;;;;;;29.67;10.02;;;333.50;1740.80;;;;;;5094059;28;20027;-72
2021/10/23 05:25:25;;;;;;;38.20;15.13;;;333.50;1740.80;;;;;;5075771;28;20093;-72
2021/10/23 05:27:51;;;;;;;28.13;10.82;;;333.50;1766.40;;;;;;5094625;28;20473;-71
2021/10/23 05:30:17;;;;;;;16.70;6.78;;;333.50;1766.40;;;;;;5094317;28;20416;-71
2021/10/23 05:32:43;;;;;;;16.52;6.15;;;333.50;1766.40;;;;;;5093602;28;20608;-72
2021/10/23 05:35:09;;;;;;;13.45;4.82;;;333.50;1766.40;;;;;;5093611;28;20024;-73
2021/10/23 05:37:34;;;;;;;17.30;5.47;;;333.50;1766.40;;;;;;5094384;28;20024;-73
2021/10/23 05:40:00;;;;;;;16.17;4.75;;;333.40;1766.40;;;;;;5094163;28;20039;-72
2021/10/23 05:42:26;;;;;;;13.55;3.72;;;333.40;1766.40;;;;;;5093947;28;20024;-73
2021/10/23 05:44:52;;;;;;;11.52;4.93;;;333.40;1766.40;;;;;;5094011;28;20028;-74
2021/10/23 05:47:17;;;;;;;13.05;4.93;;;333.40;1792.00;;;;;;5093974;28;20062;-71
2021/10/23 05:49:43;;;;;;;25.73;10.32;;;333.40;1792.00;;;;;;5093824;28;20048;-71
2021/10/23 05:52:09;;;;;;;30.20;11.52;;;333.50;1766.40;;;;;;5094045;28;20382;-70
2021/10/23 05:54:38;;;;;;;31.50;12.10;;;333.50;1792.00;;;;;;5093662;28;20020;-70
2021/10/23 05:57:08;;;;;;;29.13;11.65;;;333.50;1792.00;;;;;;5093643;28;20020;-71
2021/10/23 05:59:37;;;;;;;17.05;8.38;;;333.50;1792.00;;;;;;5093566;28;20389;-72
2021/10/23 06:02:21;;;;;;;16.42;7.85;;;333.50;1766.40;;;;;;5093922;28;20103;-78
2021/10/23 06:04:48;;;;;;;17.90;9.27;;;333.50;1843.20;;;;;;5093823;28;20050;-77
2021/10/23 06:07:14;;;;;;;16.13;9.10;;;333.50;1792.00;;;;;;5093512;28;20039;-73
2021/10/23 06:09:42;;;;;;;14.25;9.20;;;333.50;1766.40;;;;;;5094154;28;20035;-76
2021/10/23 06:12:08;;;;;;;15.63;9.55;;;333.60;1766.40;;;;;;5093384;28;20024;-76
2021/10/23 06:14:34;;;;;;;18.52;9.18;;;333.60;1766.40;;;;;;5077061;28;20119;-77
2021/10/23 06:16:59;;;;;;;20.05;9.13;;;333.60;1766.40;;;;;;5075545;28;20059;-76
2021/10/23 06:19:25;;;;;;;18.08;8.68;;;333.70;1740.80;;;;;;5074860;28;20109;-77
2021/10/23 06:21:51;;;;;;;14.40;7.45;;;333.70;1766.40;;;;;;5093742;28;20028;-75
2021/10/23 06:24:17;;;;;;;22.50;8.50;;;333.70;1740.80;;;;;;5093622;28;20027;-77
2021/10/23 06:26:42;;;;;;;22.77;9.98;;;333.60;1766.40;;;;;;5093412;28;20089;-77
2021/10/23 06:29:08;;;;;;;22.23;11.18;;;333.60;1766.40;;;;;;5093527;28;20466;-77
2021/10/23 06:31:34;;;;;;;23.27;12.43;;;333.70;1740.80;;;;;;5093362;28;20416;-73
2021/10/23 06:34:00;;;;;;;27.20;12.60;;;333.60;1740.80;;;;;;5093225;28;20020;-73
2021/10/23 06:36:26;;;;;;;29.10;12.25;;;333.60;1740.80;;;;;;5093021;28;20024;-77
2021/10/23 06:38:52;;;;;;;17.98;10.05;;;333.60;1740.80;;;;;;5092488;28;20504;-77
2021/10/23 06:41:17;;;;;;;21.17;10.95;;;333.60;1740.80;;;;;;5092556;28;20059;-75
2021/10/23 06:43:43;;;;;;;26.45;17.20;;;333.60;1740.80;;;;;;5075251;28;20024;-75
2021/10/23 06:46:09;;;;;;;52.83;33.20;;;333.60;1766.40;;;;;;5096264;28;20031;-75
2021/10/23 06:48:34;;;;;;;61.08;38.63;;;333.60;1766.40;;;;;;5096723;28;20027;-78
2021/10/23 06:51:00;;;;;;;47.95;31.95;;;333.60;1792.00;;;;;;5097353;28;20016;-76
2021/10/23 06:53:26;;;;;;;47.03;28.67;;;333.60;1792.00;;;;;;5096611;28;20032;-77
2021/10/23 06:55:51;;;;;;;40.25;23.80;;;333.60;1792.00;;;;;;5096769;28;20347;-77
2021/10/23 06:58:17;;;;;;;37.65;21.58;;;333.60;1792.00;;;;;;5096995;28;20024;-78
2021/10/23 07:00:43;;;;;;;20.90;13.82;;;333.70;1792.00;;;;;;5096393;28;20028;-78
2021/10/23 07:03:08;;;;;;;20.33;11.95;;;333.70;1817.60;;;;;;5079073;28;20020;-78
2021/10/23 07:05:34;;;;;;;26.90;16.92;;;333.60;1792.00;;;;;;5096790;28;20067;-75
2021/10/23 07:08:00;;;;;;;30.92;18.15;;;333.60;1817.60;;;;;;5096778;28;20103;-78
2021/10/23 07:10:26;;;;;;;25.95;18.42;;;333.60;1817.60;;;;;;5097199;28;20466;-78
2021/10/23 07:12:52;;;;;;;30.17;16.33;;;333.60;1817.60;;;;;;5095277;28;20493;-77
2021/10/23 07:15:19;;;;;;;27.63;16.40;;;333.50;1817.60;;;;;;5094362;28;20062;-71
2021/10/23 07:17:45;;;;;;;25.20;15.30;;;333.50;1868.80;;;;;;5094734;28;20107;-75
2021/10/23 07:20:11;;;;;;;27.73;14.35;;;333.50;1843.20;;;;;;5093064;28;20449;-73
2021/10/23 07:22:37;;;;;;;26.17;14.02;;;333.50;1817.60;;;;;;5094022;28;20024;-73
2021/10/23 07:25:05;;;;;;;22.38;10.63;;;333.50;1817.60;;;;;;5094434;28;20042;-69
2021/10/23 07:27:31;;;;;;;25.42;13.82;;;333.50;1843.20;;;;;;5093065;28;20518;-73
2021/10/23 07:29:57;;;;;;;30.63;17.15;;;333.50;1843.20;;;;;;5075487;28;20112;-69
2021/10/23 07:32:23;;;;;;;29.15;14.05;;;333.50;1868.80;;;;;;5095185;28;20024;-75
2021/10/23 07:34:48;;;;;;;25.45;12.80;;;333.50;1868.80;;;;;;5094927;28;20023;-71
2021/10/23 07:37:14;;;;;;;21.15;11.00;;;333.50;1843.20;;;;;;5076411;28;20032;-74
2021/10/23 07:39:40;;;;;;;14.32;8.18;;;333.50;1817.60;;;;;;5095053;28;20469;-69
2021/10/23 07:42:07;;;;;;;13.43;7.18;;;333.50;1843.20;;;;;;5096167;28;20024;-72
2021/10/23 07:44:33;;;;;;;16.30;8.50;;;333.50;1817.60;;;;;;5096510;28;20065;-72
2021/10/23 07:46:59;;;;;;;17.45;8.20;;;333.50;1817.60;;;;;;5096654;28;20460;-70
2021/10/23 07:49:24;;;;;;;15.38;6.47;;;333.60;1843.20;;;;;;5095948;28;20115;-82
2021/10/23 07:51:50;;;;;;;11.70;5.13;;;333.60;1817.60;;;;;;5096168;28;20024;-69
2021/10/23 07:54:16;;;;;;;9.02;4.30;;;333.60;1792.00;;;;;;5096452;28;20050;-81
2021/10/23 07:56:43;;;;;;;7.90;4.38;;;333.60;1766.40;;;;;;5076725;28;20562;-72
2021/10/23 07:59:09;;;;;;;12.43;5.25;;;333.60;1792.00;;;;;;5095934;28;20024;-66
2021/10/23 08:01:35;;;;;;;12.82;6.35;;;333.60;1817.60;;;;;;5095630;28;20355;-69
2021/10/23 08:04:01;;;;;;;14.48;6.97;;;333.70;1817.60;;;;;;5095477;28;20026;-61
2021/10/23 08:06:27;;;;;;;11.75;6.90;;;333.60;1792.00;;;;;;5096366;28;20474;-76
2021/10/23 08:08:53;;;;;;;10.25;6.68;;;333.60;1766.40;;;;;;5095873;28;20046;-65
2021/10/23 08:11:19;;;;;;;19.98;8.10;;;333.70;1766.40;;;;;;5095843;28;20016;-64
2021/10/23 08:13:45;;;;;;;47.28;10.23;;;333.70;1792.00;;;;;;5095516;28;20059;-65
2021/10/23 08:16:12;;;;;;;20.50;8.13;;;333.70;1766.40;;;;;;5094955;28;20020;-75
2021/10/23 08:18:37;;;;;;;23.10;8.52;;;333.70;1766.40;;;;;;5095562;28;20028;-66
2021/10/23 08:21:03;;;;;;;28.52;9.07;;;358.40;1792.00;;;;;;5095668;28;20088;-66
2021/10/23 08:23:29;;;;;;;20.63;8.40;;;358.40;1792.00;;;;;;5095590;28;20020;-68
2021/10/23 08:25:55;;;;;;;11.02;4.97;;;358.50;1766.40;;;;;;5095539;28;20377;-68
2021/10/23 08:28:24;;;;;;;15.85;6.43;;;358.50;1740.80;;;;;;5095365;28;20024;-68
2021/10/23 08:30:51;;;;;;;12.32;6.50;;;358.50;1740.80;;;;;;5095768;28;20035;-64
2021/10/23 08:33:17;;;;;;;19.75;8.00;;;358.50;1715.20;;;;;;5095238;28;20476;-65
2021/10/23 08:35:43;;;;;;;21.80;9.48;;;358.50;1715.20;;;;;;5094929;28;20485;-65
2021/10/23 08:38:09;;;;;;;16.90;7.80;;;358.50;1715.20;;;;;;5095332;28;20466;-64
2021/10/23 08:40:35;;;;;;;22.30;8.75;;;358.50;1740.80;;;;;;5095317;28;20119;-65
2021/10/23 08:43:02;;;;;;;30.45;13.85;;;358.50;1817.60;;;;;;5095063;28;20024;-65
2021/10/23 08:45:29;;;;;;;30.98;15.40;;;358.60;1740.80;;;;;;5095357;28;20016;-66
2021/10/23 08:47:58;;;;;;;20.95;11.02;;;358.60;1740.80;;;;;;5095209;28;20048;-65
2021/10/23 08:50:24;;;;;;;26.00;9.95;;;358.60;1766.40;;;;;;5094645;28;20056;-65
2021/10/23 08:52:55;;;;;;;15.73;7.88;;;358.70;1740.80;;;;;;5095302;28;20024;-65
2021/10/23 08:55:22;;;;;;;13.40;6.82;;;358.70;1740.80;;;;;;5095120;28;20028;-65
2021/10/23 08:57:48;;;;;;;9.98;5.35;;;358.70;1715.20;;;;;;5094839;28;20031;-65
2021/10/23 09:00:15;;;;;;;17.38;6.80;;;358.70;1689.60;;;;;;5094955;28;20359;-64
2021/10/23 09:02:41;;;;;;;30.73;9.05;;;358.70;1766.40;;;;;;5094762;28;20032;-64
2021/10/23 09:05:08;;;;;;;20.65;8.32;;;358.70;1740.80;;;;;;5094835;28;20027;-64
2021/10/23 09:07:43;;;;;;;11.45;7.80;;;358.70;1715.20;;;;;;5094704;28;20355;-64
2021/10/23 09:10:09;;;;;;;14.43;7.00;;;358.70;1715.20;;;;;;5094688;28;20028;-63
2021/10/23 09:12:37;;;;;;;19.48;10.70;;;358.80;1740.80;;;;;;5093339;28;20038;-63
2021/10/23 09:15:18;;;;;;;22.15;10.13;;;358.80;1664.00;;;;;;5093176;28;20035;-63
2021/10/23 09:17:50;;;;;;;30.83;19.42;;;358.80;1664.00;;;;;;5091837;28;20111;-64
2021/10/23 09:20:18;;;;;;;29.15;20.85;;;358.80;1638.40;;;;;;5090838;28;20028;-65
2021/10/23 09:22:51;;;;;;;28.23;14.52;;;358.80;1664.00;;;;;;5093674;28;20032;-65
2021/10/23 09:25:24;;;;;;;22.20;12.52;;;358.80;1638.40;;;;;;5094086;28;20058;-70
2021/10/23 09:28:04;;;;;;;22.08;10.93;;;358.80;1664.00;;;;;;5092951;28;20020;-65
2021/10/23 09:30:33;;;;;;;16.45;9.50;;;358.90;1638.40;;;;;;5094310;28;20044;-65
2021/10/23 09:33:06;;;;;;;15.50;7.20;;;358.80;1664.00;;;;;;5094513;28;20474;-65
2021/10/23 09:35:34;;;;;;;18.67;7.43;;;358.80;1664.00;;;;;;5093985;28;20022;-64
2021/10/23 09:38:01;;;;;;;16.73;7.50;;;358.80;1715.20;;;;;;5094319;28;20030;-64
2021/10/23 09:40:29;;;;;;;13.60;6.78;;;358.80;1638.40;;;;;;5093033;28;20032;-65
2021/10/23 09:43:14;;;;;;;17.60;8.02;;;358.90;1638.40;;;;;;5093954;28;20149;-64
2021/10/23 09:45:58;;;;;;;15.38;7.97;;;358.90;1638.40;;;;;;5092894;28;20028;-64
2021/10/23 09:48:35;;;;;;;27.38;10.60;;;358.90;1638.40;;;;;;5093859;28;20389;-62
2021/10/23 09:51:20;;;;;;;29.75;8.25;;;358.90;1664.00;;;;;;5094355;28;20043;-65
2021/10/23 09:53:48;;;;;;;46.63;8.00;;;358.90;1638.40;;;;;;5094020;28;20027;-65
2021/10/23 09:56:20;;;;;;;17.55;5.88;;;358.90;1638.40;;;;;;5094072;28;20119;-65
2021/10/23 09:58:53;;;;;;;13.15;5.82;;;358.80;1638.40;;;;;;5094421;28;20485;-64
2021/10/23 10:01:21;;;;;;;18.27;6.50;;;358.80;1638.40;;;;;;5094000;28;20043;-64
2021/10/23 10:03:49;;;;;;;16.88;6.43;;;358.80;1638.40;;;;;;5093805;28;20047;-63
2021/10/23 10:06:15;;;;;;;24.58;7.50;;;358.90;1664.00;;;;;;5093971;28;20065;-64
2021/10/23 10:08:41;;;;;;;23.83;6.78;;;358.90;1638.40;;;;;;5093949;28;20047;-64
2021/10/23 10:11:11;;;;;;;19.65;7.57;;;358.90;1638.40;;;;;;5093269;28;20020;-65
2021/10/23 10:13:39;;;;;;;21.65;8.10;;;358.90;1638.40;;;;;;5093807;28;20047;-65
2021/10/23 10:16:06;;;;;;;19.67;8.05;;;358.90;1612.80;;;;;;5093916;28;20111;-65
2021/10/23 10:18:33;;;;;;;20.63;8.80;;;358.90;1612.80;;;;;;5094076;28;20020;-65
2021/10/23 10:20:59;;;;;;;36.40;10.32;;;358.90;1612.80;;;;;;5097193;28;20102;-65
2021/10/23 10:23:39;;;;;;;20.55;6.57;;;358.90;1612.80;;;;;;5097475;28;20024;-65
2021/10/23 10:26:14;;;;;;;15.50;6.68;;;359.00;1587.20;;;;;;5097950;28;20051;-64
2021/10/23 10:29:28;;;;;;;21.27;8.25;;;359.00;1587.20;;;;;;5098046;28;20099;-64
2021/10/23 10:37:38;;;;;;;20.67;7.53;;;359.00;1587.20;;;;;;5097613;28;20020;-65
2021/10/23 10:42:51;;;;;;;;;;;359.10;1612.80;;;;;;5098148;28;20470;-68
2021/10/23 10:45:38;;;;;;;32.00;7.38;;;359.10;1587.20;;;;;;5097792;28;19908;-68
2021/10/23 10:48:23;;;;;;;21.10;8.88;;;359.10;1561.60;;;;;;5097200;28;20063;-68
2021/10/23 10:51:04;;;;;;;20.55;9.75;;;359.10;1561.60;;;;;;5097245;28;20386;-67
2021/10/23 10:53:32;;;;;;;27.80;10.07;;;359.10;1587.20;;;;;;5097300;28;20024;-67
2021/10/23 10:56:05;;;;;;;30.60;13.23;;;359.20;1612.80;;;;;;5097552;28;20476;-68
2021/10/23 10:58:49;;;;;;;18.25;9.48;;;359.20;1612.80;;;;;;5097289;28;20073;-68
2021/10/23 11:01:21;;;;;;;26.42;11.13;;;359.30;1587.20;;;;;;5097053;28;20488;-68
2021/10/23 11:03:54;;;;;;;39.45;12.95;;;359.20;1561.60;;;;;;5097218;28;20094;-66
2021/10/23 11:06:29;;;;;;;43.58;10.55;;;359.30;1638.40;;;;;;5097073;28;20382;-64
2021/10/23 11:09:14;;;;;;;46.55;8.23;;;384.00;1638.40;;;;;;5096980;28;20481;-67
2021/10/23 11:11:46;;;;;;;30.23;8.57;;;384.00;1587.20;;;;;;5097036;28;20023;-67
2021/10/23 11:14:21;;;;;;;195.32;20.30;;;384.10;1612.80;;;;;;5097189;28;20067;-66
2021/10/23 11:16:46;;;;;;;41.17;8.52;;;384.00;1587.20;;;;;;5097017;28;20390;-67
2021/10/23 11:19:22;;;;;;;38.88;8.98;;;384.00;1561.60;;;;;;5096493;28;20028;-65
2021/10/23 11:21:53;;;;;;;33.67;8.98;;;384.10;1561.60;;;;;;5096612;28;20039;-66
2021/10/23 11:24:19;;;;;;;42.92;12.52;;;384.10;1612.80;;;;;;5096619;28;20024;-67
2021/10/23 11:26:52;;;;;;;27.40;12.50;;;384.10;1612.80;;;;;;5096776;28;20468;-66
2021/10/23 11:29:22;;;;;;;37.85;14.65;;;384.10;1587.20;;;;;;5096736;28;20032;-67
2021/10/23 11:31:49;;;;;;;21.40;10.15;;;384.10;1587.20;;;;;;5096511;28;20047;-66
2021/10/23 11:34:22;;;;;;;30.80;14.60;;;384.10;1587.20;;;;;;5096437;28;20024;-67
2021/10/23 11:37:06;;;;;;;21.08;10.10;;;384.10;1612.80;;;;;;5096388;28;20027;-67
2021/10/23 11:39:35;;;;;;;34.80;15.80;;;384.10;1587.20;;;;;;5096573;28;20036;-66
2021/10/23 11:42:26;;;;;;;26.55;13.10;;;384.10;1587.20;;;;;;5096778;28;20039;-67
2021/10/23 11:45:21;;;;;;;16.67;7.68;;;384.10;1612.80;;;;;;5096636;28;20024;-66
2021/10/23 11:47:48;;;;;;;15.73;5.25;;;384.10;1612.80;;;;;;5095940;28;20035;-66
2021/10/23 11:50:33;;;;;;;27.58;5.78;;;384.10;1612.80;;;;;;5096161;28;20382;-66
2021/10/23 11:53:00;;;;;;;;;;;384.10;1612.80;;;;;;5095283;28;20020;-68
2021/10/23 11:55:35;;;;;;;20.05;6.45;;;384.10;1612.80;;;;;;5094722;28;19908;-71
2021/10/23 11:58:02;;;;;;;;;;;384.10;1612.80;;;;;;5095039;28;20027;-69
2021/10/23 12:00:35;;;;;;;19.05;9.07;;;384.10;1612.80;;;;;;5094703;28;19912;-67
2021/10/23 12:03:04;;;;;;;14.68;6.25;;;384.10;1587.20;;;;;;5092052;28;20114;-66
2021/10/23 12:05:30;;;;;;;14.18;7.20;;;384.10;1587.20;;;;;;5094510;28;20024;-71
2021/10/23 12:08:08;;;;;;;27.63;8.82;;;384.20;1587.20;;;;;;5094369;28;20026;-72
2021/10/23 12:10:54;;;;;;;21.02;6.05;;;384.20;1612.80;;;;;;5093728;28;20537;-69
2021/10/23 12:13:20;;;;;;;16.10;7.30;;;384.20;1587.20;;;;;;5094092;28;20016;-70
2021/10/23 12:15:59;;;;;;;30.33;13.45;;;384.20;1587.20;;;;;;5094568;28;20477;-69
2021/10/23 12:18:39;;;;;;;23.98;11.20;;;384.20;1561.60;;;;;;5092344;28;20024;-73
2021/10/23 12:21:14;;;;;;;24.05;10.30;;;384.20;1638.40;;;;;;5091748;28;20481;-68
2021/10/23 12:23:45;;;;;;;13.82;7.38;;;384.20;1587.20;;;;;;5094333;28;20121;-68